Time;durP1;ratioP1;P1;durP2;ratioP2;P2;SDS_P1;SDS_P2;PMS_P1;PMS_P2;Temp;Humidity;BMP_temperature;BMP_pressure;BME280_temperature;BME280_humidity;BME280_pressure;Samples;Min_cycle;Max_cycle;Signal;HPM_P1;HPM_P2
2022/04/28 00:01:52;;;;;;;1999.90;999.90;;;8.70;99.90;;;;;;5032575;28;20229;-63
2022/04/28 00:04:18;;;;;;;1999.90;999.90;;;8.60;99.90;;;;;;5037861;28;20190;-63
2022/04/28 00:06:44;;;;;;;1999.90;999.90;;;8.70;99.90;;;;;;5000252;28;20197;-62
2022/04/28 00:09:09;;;;;;;1999.90;999.90;;;8.70;99.90;;;;;;5031351;28;20183;-63
2022/04/28 00:11:35;;;;;;;1999.90;999.90;;;8.70;99.90;;;;;;5025991;28;20190;-63
2022/04/28 00:14:01;;;;;;;1999.90;999.90;;;8.60;99.90;;;;;;5020674;28;20190;-62
2022/04/28 00:16:27;;;;;;;1999.90;999.90;;;8.60;99.90;;;;;;5033364;28;20550;-63
2022/04/28 00:18:53;;;;;;;1999.90;999.90;;;8.60;99.90;;;;;;5029591;28;20643;-69
2022/04/28 00:21:19;;;;;;;1999.90;999.90;;;8.50;99.90;;;;;;5024061;28;20669;-63
2022/04/28 00:23:45;;;;;;;1999.90;999.90;;;8.50;99.90;;;;;;5005572;28;20210;-63
2022/04/28 00:26:11;;;;;;;1839.13;999.90;;;8.50;99.90;;;;;;5032815;28;20183;-63
2022/04/28 00:28:37;;;;;;;1999.90;999.90;;;8.40;99.90;;;;;;5033396;28;20248;-63
2022/04/28 00:31:03;;;;;;;1999.90;999.90;;;8.40;99.90;;;;;;5033251;28;21095;-62
2022/04/28 00:33:29;;;;;;;1999.90;999.90;;;8.40;99.90;;;;;;5032851;28;20191;-62
2022/04/28 00:35:55;;;;;;;1999.90;999.90;;;8.50;99.90;;;;;;5033379;28;20214;-63
2022/04/28 00:38:20;;;;;;;1999.90;999.90;;;8.60;99.90;;;;;;5015484;28;20233;-67
2022/04/28 00:40:46;;;;;;;1999.90;999.90;;;8.50;99.90;;;;;;5015667;28;20190;-64
2022/04/28 00:43:18;;;;;;;1999.90;999.90;;;8.50;99.90;;;;;;4998328;28;20214;-63
2022/04/28 00:45:44;;;;;;;1999.90;999.90;;;8.30;99.90;;;;;;5033028;28;20194;-63
2022/04/28 00:50:57;;;;;;;1999.90;999.90;;;8.20;99.90;;;;;;5018372;28;20229;-63
2022/04/28 00:53:26;;;;;;;1999.90;999.90;;;8.20;99.90;;;;;;5043585;28;20194;-64
2022/04/28 00:55:52;;;;;;;1999.90;999.90;;;8.40;99.90;;;;;;5015211;28;20175;-64
2022/04/28 00:58:19;;;;;;;1999.90;999.90;;;8.40;99.90;;;;;;5015555;28;20190;-63
2022/04/28 01:00:44;;;;;;;1999.90;999.90;;;8.40;99.90;;;;;;5015552;28;20222;-63
2022/04/28 01:03:11;;;;;;;1999.90;999.90;;;8.30;99.90;;;;;;5043344;28;20230;-63
2022/04/28 01:05:37;;;;;;;1999.90;999.90;;;8.40;99.90;;;;;;5032614;28;20183;-63
2022/04/28 01:08:03;;;;;;;1999.90;999.90;;;8.50;99.90;;;;;;5031452;28;20198;-64
2022/04/28 01:10:28;;;;;;;1999.90;999.90;;;8.30;99.90;;;;;;5033306;28;20187;-63
2022/04/28 01:12:55;;;;;;;1999.90;999.90;;;8.30;99.90;;;;;;5035315;28;20209;-63
2022/04/28 01:15:21;;;;;;;1999.90;999.90;;;8.10;99.90;;;;;;5018928;28;20182;-64
2022/04/28 01:17:47;;;;;;;1999.90;999.90;;;8.00;99.90;;;;;;5036596;28;20186;-63
2022/04/28 01:20:12;;;;;;;1999.90;999.90;;;7.90;99.90;;;;;;5036636;28;20541;-64
2022/04/28 01:22:38;;;;;;;1999.90;999.90;;;7.80;99.90;;;;;;5026635;28;20236;-64
2022/04/28 01:25:08;;;;;;;1999.90;999.90;;;7.80;99.90;;;;;;5045093;28;20549;-63
2022/04/28 01:27:35;;;;;;;1999.90;999.90;;;7.70;99.90;;;;;;5043016;28;20240;-64
2022/04/28 01:30:01;;;;;;;1999.90;999.90;;;7.70;99.90;;;;;;5017573;28;20183;-64
2022/04/28 01:32:26;;;;;;;1999.90;999.90;;;7.60;99.90;;;;;;5019289;28;20227;-64
2022/04/28 01:34:52;;;;;;;1999.90;999.90;;;7.60;99.90;;;;;;5035979;28;20187;-64
2022/04/28 01:37:18;;;;;;;1999.90;999.90;;;7.70;99.90;;;;;;5036394;28;20195;-64
2022/04/28 01:39:44;;;;;;;1999.90;999.90;;;7.70;99.90;;;;;;5035024;28;20225;-64
2022/04/28 01:42:10;;;;;;;1999.90;999.90;;;7.70;99.90;;;;;;5036014;28;20214;-63
2022/04/28 01:44:36;;;;;;;1999.90;999.90;;;7.70;99.90;;;;;;5036197;28;20647;-64
2022/04/28 01:47:02;;;;;;;1999.90;999.90;;;7.70;99.90;;;;;;5036184;28;20189;-63
2022/04/28 01:49:28;;;;;;;1999.90;999.90;;;7.60;99.90;;;;;;5034786;28;20225;-64
2022/04/28 01:57:22;;;;;;;1999.90;999.90;;;7.80;99.90;;;;;;5035905;28;20275;-64
2022/04/28 01:59:48;;;;;;;1999.90;999.90;;;7.70;99.90;;;;;;5034833;28;20274;-64
2022/04/28 02:02:13;;;;;;;1999.90;999.90;;;7.60;99.90;;;;;;5030506;28;20302;-64
2022/04/28 02:04:39;;;;;;;1999.90;999.90;;;7.50;99.90;;;;;;5034520;28;20194;-64
2022/04/28 02:07:06;;;;;;;1999.90;999.90;;;7.50;99.90;;;;;;5017489;28;20607;-64
2022/04/28 02:09:32;;;;;;;1999.90;999.90;;;7.50;99.90;;;;;;5035780;28;20189;-64
2022/04/28 02:11:58;;;;;;;1999.90;999.90;;;7.50;99.90;;;;;;5035325;28;20198;-63
2022/04/28 02:14:24;;;;;;;1999.90;999.90;;;7.50;99.90;;;;;;5035060;28;20194;-67
2022/04/28 02:16:50;;;;;;;1999.90;999.90;;;7.50;99.90;;;;;;5017436;28;20588;-64
2022/04/28 02:19:16;;;;;;;1999.90;999.90;;;7.50;99.90;;;;;;5035664;28;20179;-64
2022/04/28 02:21:42;;;;;;;1999.90;999.90;;;7.50;99.90;;;;;;5038751;28;20281;-64
2022/04/28 02:24:11;;;;;;;1999.90;999.90;;;7.60;99.90;;;;;;5035197;28;20190;-63
2022/04/28 02:26:36;;;;;;;1999.90;999.90;;;7.50;99.90;;;;;;5028822;28;20601;-63
2022/04/28 02:29:02;;;;;;;1999.90;999.90;;;7.40;99.90;;;;;;5017579;28;20210;-63
2022/04/28 02:31:28;;;;;;;1999.90;999.90;;;7.30;99.90;;;;;;5034539;28;20217;-64
2022/04/28 02:33:54;;;;;;;1999.90;999.90;;;7.40;99.90;;;;;;5033780;28;20194;-64
2022/04/28 02:36:19;;;;;;;1999.90;999.90;;;7.40;99.90;;;;;;5017189;28;20594;-64
2022/04/28 02:38:45;;;;;;;1999.90;999.90;;;7.40;99.90;;;;;;5027139;28;20178;-63
2022/04/28 02:41:11;;;;;;;1999.90;999.90;;;7.30;99.90;;;;;;5041858;28;20574;-64
2022/04/28 02:43:36;;;;;;;1999.90;999.90;;;7.30;99.90;;;;;;5024110;28;20210;-67
2022/04/28 02:46:02;;;;;;;1999.90;999.90;;;7.30;99.90;;;;;;5017428;28;20195;-64
2022/04/28 02:48:28;;;;;;;1999.90;999.90;;;7.40;99.90;;;;;;5017113;28;20202;-64
2022/04/28 02:50:53;;;;;;;1999.90;999.90;;;7.30;99.90;;;;;;5033699;28;20183;-64
2022/04/28 02:53:19;;;;;;;1999.90;999.90;;;7.20;99.90;;;;;;5031405;28;20190;-64
2022/04/28 02:55:45;;;;;;;1999.90;999.90;;;7.20;99.90;;;;;;5003992;28;20269;-64
2022/04/28 02:58:10;;;;;;;1999.90;999.90;;;7.30;99.90;;;;;;5051078;28;20190;-64
2022/04/28 03:00:37;;;;;;;1999.90;999.90;;;7.20;99.90;;;;;;5039600;28;20269;-64
2022/04/28 03:03:04;;;;;;;1999.90;999.90;;;7.40;99.90;;;;;;5053475;28;20213;-64
2022/04/28 03:05:30;;;;;;;1999.90;999.90;;;7.30;99.90;;;;;;5026827;28;20550;-64
2022/04/28 03:10:49;;;;;;;1999.90;999.90;;;7.30;99.90;;;;;;5035682;28;20676;-63
2022/04/28 03:13:21;;;;;;;1999.90;999.90;;;7.20;99.90;;;;;;5031057;28;20189;-64
2022/04/28 03:15:48;;;;;;;1999.90;999.90;;;7.20;99.90;;;;;;5038806;28;20192;-64
2022/04/28 03:18:15;;;;;;;1999.90;999.90;;;7.10;99.90;;;;;;5051536;28;20644;-64
2022/04/28 03:20:41;;;;;;;1999.90;999.90;;;7.00;99.90;;;;;;5034023;28;20190;-64
2022/04/28 03:23:08;;;;;;;1999.90;999.90;;;6.90;99.90;;;;;;5034094;28;20293;-64
2022/04/28 03:25:34;;;;;;;1999.90;999.90;;;6.90;99.90;;;;;;5016158;28;20670;-63
2022/04/28 03:27:59;;;;;;;1999.90;999.90;;;7.00;99.90;;;;;;5016469;28;20179;-63
2022/04/28 03:30:25;;;;;;;1999.90;999.90;;;7.00;99.90;;;;;;5032728;28;20233;-63
2022/04/28 03:32:51;;;;;;;1999.90;999.90;;;7.00;99.90;;;;;;5034265;28;20218;-63
2022/04/28 03:35:16;;;;;;;1999.90;999.90;;;7.00;99.90;;;;;;5033760;28;20191;-64
2022/04/28 03:37:47;;;;;;;1999.90;999.90;;;7.00;99.90;;;;;;5034167;28;20183;-63
2022/04/28 03:40:14;;;;;;;1999.90;999.90;;;6.90;99.90;;;;;;5032563;28;20190;-63
2022/04/28 03:42:40;;;;;;;1999.90;999.90;;;6.80;99.90;;;;;;5035337;28;20210;-63
2022/04/28 03:45:09;;;;;;;1999.90;999.90;;;6.70;99.90;;;;;;5031202;28;20262;-63
2022/04/28 03:47:38;;;;;;;1999.90;999.90;;;6.70;99.90;;;;;;5036486;28;20241;-66
2022/04/28 03:50:05;;;;;;;1999.90;999.90;;;6.70;99.90;;;;;;5027312;28;20187;-63
2022/04/28 03:52:30;;;;;;;1999.90;999.90;;;6.80;99.90;;;;;;5034387;28;20236;-64
2022/04/28 03:54:56;;;;;;;1999.90;999.90;;;6.70;99.90;;;;;;5043134;28;20278;-63
2022/04/28 03:57:22;;;;;;;1999.90;999.90;;;6.70;99.90;;;;;;5016982;28;20269;-65
2022/04/28 03:59:48;;;;;;;1999.90;999.90;;;6.70;99.90;;;;;;5000057;28;20237;-65
2022/04/28 04:02:13;;;;;;;1999.90;999.90;;;6.60;99.90;;;;;;5051253;28;20225;-63
2022/04/28 04:04:39;;;;;;;1999.90;999.90;;;6.60;99.90;;;;;;5037106;28;20654;-64
2022/04/28 04:07:05;;;;;;;1999.90;999.90;;;6.50;99.90;;;;;;4999538;28;20206;-63
2022/04/28 04:09:31;;;;;;;1999.90;999.90;;;6.50;99.90;;;;;;5032248;28;20198;-64
2022/04/28 04:11:57;;;;;;;1999.90;999.90;;;6.60;99.90;;;;;;5033334;28;20183;-63
2022/04/28 04:14:22;;;;;;;1999.90;999.90;;;6.50;99.90;;;;;;5044653;28;20182;-65
2022/04/28 04:16:48;;;;;;;1999.90;999.90;;;6.50;99.90;;;;;;5033292;28;20581;-66
2022/04/28 04:19:14;;;;;;;1999.90;999.90;;;6.60;99.90;;;;;;5033524;28;20186;-63
2022/04/28 04:21:39;;;;;;;1999.90;999.90;;;6.60;99.90;;;;;;5015207;28;20194;-63
2022/04/28 04:24:06;;;;;;;1999.90;999.90;;;6.60;99.90;;;;;;5002757;28;20222;-64
2022/04/28 04:26:32;;;;;;;1999.90;999.90;;;6.60;99.90;;;;;;5033058;28;20627;-64
2022/04/28 04:28:57;;;;;;;1999.90;999.90;;;6.60;99.90;;;;;;5033440;28;20183;-64
2022/04/28 04:34:08;;;;;;;1999.90;999.90;;;6.60;99.90;;;;;;5032960;28;20229;-63
2022/04/28 04:36:34;;;;;;;1999.90;999.90;;;6.70;99.90;;;;;;5038194;28;20624;-64
2022/04/28 04:39:01;;;;;;;1999.90;999.90;;;6.70;99.90;;;;;;5042369;28;20198;-62
2022/04/28 04:41:27;;;;;;;1999.90;999.90;;;6.70;99.90;;;;;;5042101;28;20183;-65
2022/04/28 04:43:52;;;;;;;1999.90;999.90;;;6.70;99.90;;;;;;5043473;28;20220;-63
2022/04/28 04:46:18;;;;;;;1999.90;999.90;;;6.70;99.90;;;;;;5031348;28;20729;-64
2022/04/28 04:48:43;;;;;;;1999.90;999.90;;;6.70;99.90;;;;;;5054790;28;20196;-65
2022/04/28 04:51:09;;;;;;;1999.90;999.90;;;6.60;99.90;;;;;;5007593;28;20186;-63
2022/04/28 04:53:35;;;;;;;1999.90;999.90;;;6.60;99.90;;;;;;5035514;28;20650;-64
2022/04/28 04:56:00;;;;;;;1999.90;999.90;;;6.70;99.90;;;;;;5037026;28;20185;-64
2022/04/28 04:58:26;;;;;;;1999.90;999.90;;;6.70;99.90;;;;;;5035489;28;20186;-63
2022/04/28 05:00:52;;;;;;;1999.90;999.90;;;6.80;99.90;;;;;;5045869;28;20677;-63
2022/04/28 05:03:18;;;;;;;1999.90;999.90;;;6.80;99.90;;;;;;5034464;28;20221;-63
2022/04/28 05:05:44;;;;;;;1999.90;999.90;;;6.80;99.90;;;;;;5036792;28;20587;-63
2022/04/28 05:08:11;;;;;;;1999.90;999.90;;;6.80;99.90;;;;;;5035339;28;20244;-63
2022/04/28 05:10:36;;;;;;;1999.90;999.90;;;6.90;99.90;;;;;;5036238;28;20561;-63
2022/04/28 05:13:02;;;;;;;1999.90;999.90;;;6.80;99.90;;;;;;5037719;28;20186;-62
2022/04/28 05:15:28;;;;;;;1999.90;999.90;;;6.90;99.90;;;;;;5030904;28;20183;-63
2022/04/28 05:17:53;;;;;;;1999.90;999.90;;;7.10;99.90;;;;;;5036036;28;20212;-62
2022/04/28 05:20:22;;;;;;;1999.90;999.90;;;7.20;99.90;;;;;;5018709;28;20558;-63
2022/04/28 05:22:48;;;;;;;1999.90;999.90;;;7.10;99.90;;;;;;5035336;28;20210;-63
2022/04/28 05:25:14;;;;;;;1999.90;999.90;;;6.90;99.90;;;;;;5020327;28;20627;-64
2022/04/28 05:27:41;;;;;;;1999.90;999.90;;;7.00;99.90;;;;;;5035755;28;20273;-64
2022/04/28 05:30:07;;;;;;;1999.90;999.90;;;7.10;99.90;;;;;;5036342;28;20194;-63
2022/04/28 05:32:33;;;;;;;1999.90;999.90;;;7.10;99.90;;;;;;5036145;28;20211;-64
2022/04/28 05:34:58;;;;;;;1999.90;999.90;;;7.10;99.90;;;;;;5034439;28;20234;-64
2022/04/28 05:37:24;;;;;;;1999.90;999.90;;;7.20;99.90;;;;;;5033001;28;20191;-64
2022/04/28 05:39:50;;;;;;;1999.90;999.90;;;7.30;99.90;;;;;;5033788;28;20277;-65
2022/04/28 05:42:17;;;;;;;1999.90;999.90;;;7.30;99.90;;;;;;5016916;28;20210;-65
2022/04/28 05:47:31;;;;;;;1999.90;999.90;;;7.30;99.90;;;;;;5005857;28;20281;-63
2022/04/28 05:49:57;;;;;;;1999.90;999.90;;;7.40;99.90;;;;;;5016018;28;20337;-63
2022/04/28 05:52:22;;;;;;;1999.90;999.90;;;7.40;99.90;;;;;;5036616;28;20586;-64
2022/04/28 05:54:48;;;;;;;1999.90;999.90;;;7.40;99.90;;;;;;5035653;28;20191;-63
2022/04/28 05:57:14;;;;;;;1999.90;999.90;;;7.60;99.90;;;;;;5035943;28;20186;-63
2022/04/28 05:59:40;;;;;;;1999.90;999.90;;;7.80;99.90;;;;;;5034228;28;20191;-63
2022/04/28 06:02:06;;;;;;;1999.90;999.90;;;7.80;99.90;;;;;;5010952;28;20603;-64
2022/04/28 06:04:32;;;;;;;1999.90;999.90;;;7.90;99.90;;;;;;5035665;28;20644;-63
2022/04/28 06:06:58;;;;;;;1999.90;999.90;;;7.90;99.90;;;;;;5034142;28;20202;-63
2022/04/28 06:09:23;;;;;;;1999.90;999.90;;;8.00;99.90;;;;;;5035508;28;20241;-63
2022/04/28 06:11:49;;;;;;;1999.90;999.90;;;8.00;99.90;;;;;;5035296;28;20193;-67
2022/04/28 06:14:15;;;;;;;1999.90;999.90;;;8.10;99.90;;;;;;5035617;28;20187;-64
2022/04/28 06:16:41;;;;;;;1999.90;999.90;;;8.00;99.90;;;;;;5035490;28;20599;-63
2022/04/28 06:19:07;;;;;;;1999.90;999.90;;;8.00;99.90;;;;;;5017390;28;20187;-63
2022/04/28 06:21:33;;;;;;;1999.90;999.90;;;8.20;99.90;;;;;;5017710;28;20187;-63
2022/04/28 06:23:58;;;;;;;1992.70;999.90;;;8.30;99.90;;;;;;5033621;28;20214;-63
2022/04/28 06:26:24;;;;;;;1999.90;999.90;;;8.10;99.90;;;;;;5017815;28;20182;-63
2022/04/28 06:28:49;;;;;;;1999.90;999.90;;;8.10;99.90;;;;;;5033976;28;20186;-63
2022/04/28 06:31:15;;;;;;;1999.90;999.90;;;8.30;99.90;;;;;;5029820;28;20206;-63
2022/04/28 06:33:41;;;;;;;1999.90;999.90;;;8.50;99.90;;;;;;5048406;28;20611;-64
2022/04/28 06:36:07;;;;;;;1999.90;999.90;;;8.60;99.90;;;;;;5022237;28;20187;-63
2022/04/28 06:38:33;;;;;;;1999.90;999.90;;;8.60;99.90;;;;;;5045733;28;20635;-64
2022/04/28 06:40:58;;;;;;;1999.90;999.90;;;8.80;99.90;;;;;;5045609;28;20194;-64
2022/04/28 06:43:24;;;;;;;1999.90;999.90;;;8.80;99.90;;;;;;5034945;28;20210;-63
2022/04/28 06:48:34;;;;;;;1914.50;999.90;;;8.70;99.90;;;;;;5043454;28;20559;-63
2022/04/28 06:50:59;;;;;;;1971.07;999.90;;;8.70;99.90;;;;;;5034437;28;20182;-63
2022/04/28 06:53:25;;;;;;;1999.90;999.90;;;8.80;99.90;;;;;;5035421;28;20316;-63
2022/04/28 06:55:51;;;;;;;1999.90;999.90;;;9.00;99.90;;;;;;5000432;28;20191;-64
2022/04/28 06:58:17;;;;;;;1999.90;999.90;;;9.20;99.90;;;;;;5034880;28;20183;-63
2022/04/28 07:00:43;;;;;;;1999.90;999.90;;;9.50;99.90;;;;;;5016844;28;20632;-63
2022/04/28 07:03:09;;;;;;;1999.90;999.90;;;9.60;99.90;;;;;;5034563;28;20708;-63
2022/04/28 07:05:35;;;;;;;1999.90;999.90;;;9.60;99.90;;;;;;5032918;28;20217;-63
2022/04/28 07:08:00;;;;;;;1853.77;991.33;;;9.70;99.90;;;;;;5028149;28;20222;-63
2022/04/28 07:10:26;;;;;;;1999.90;999.90;;;9.80;99.90;;;;;;5019076;28;20206;-63
2022/04/28 07:12:52;;;;;;;1999.90;999.90;;;9.90;99.90;;;;;;5032176;28;20229;-63
2022/04/28 07:15:17;;;;;;;1965.73;999.90;;;10.20;99.90;;;;;;5025969;28;20178;-63
2022/04/28 07:17:43;;;;;;;1850.33;999.90;;;10.30;99.90;;;;;;5000508;28;20199;-63
2022/04/28 07:20:09;;;;;;;1914.57;999.90;;;10.40;99.90;;;;;;5033935;28;20197;-63
2022/04/28 07:22:35;;;;;;;1887.63;999.90;;;10.60;99.90;;;;;;5033687;28;20215;-63
2022/04/28 07:25:03;;;;;;;1854.17;999.90;;;10.70;99.90;;;;;;5016868;28;20186;-63
2022/04/28 07:27:29;;;;;;;1809.63;999.90;;;10.70;99.90;;;;;;5051126;28;20190;-64
2022/04/28 07:29:55;;;;;;;1759.63;999.90;;;10.70;99.90;;;;;;5018706;28;20278;-63
2022/04/28 07:32:20;;;;;;;1841.87;999.90;;;10.80;99.90;;;;;;5033887;28;20206;-63
2022/04/28 07:34:46;;;;;;;1895.60;999.90;;;11.60;99.90;;;;;;5034094;28;20178;-66
2022/04/28 07:37:11;;;;;;;1871.13;999.90;;;13.10;99.90;;;;;;5033547;28;20539;-63
2022/04/28 07:39:37;;;;;;;1999.90;999.90;;;14.30;99.90;;;;;;5015910;28;20213;-64
2022/04/28 07:42:03;;;;;;;1999.90;999.90;;;14.80;99.90;;;;;;5032588;28;20187;-63
2022/04/28 07:44:28;;;;;;;1637.20;999.90;;;15.30;99.90;;;;;;5032636;28;20197;-64
2022/04/28 07:46:56;;;;;;;1999.90;999.90;;;15.70;99.90;;;;;;5033265;28;20289;-64
2022/04/28 07:49:22;;;;;;;1999.90;999.90;;;17.00;99.90;;;;;;5016542;28;20190;-64
2022/04/28 07:51:48;;;;;;;1999.90;999.90;;;18.10;99.90;;;;;;5034376;28;20182;-64
2022/04/28 07:54:13;;;;;;;1423.43;999.90;;;18.80;99.90;;;;;;5033339;28;20194;-64
2022/04/28 07:56:39;;;;;;;1389.85;999.90;;;18.70;99.90;;;;;;5033675;28;20175;-65
2022/04/28 07:59:07;;;;;;;1353.25;999.90;;;18.50;99.90;;;;;;5033553;28;20183;-64
2022/04/28 08:01:33;;;;;;;1324.45;999.90;;;18.10;99.90;;;;;;5033618;28;20189;-64
2022/04/28 08:03:59;;;;;;;1342.25;999.90;;;18.80;99.90;;;;;;5032960;28;20214;-64
2022/04/28 08:06:25;;;;;;;1311.53;999.90;;;18.20;99.90;;;;;;5015906;28;20214;-64
2022/04/28 08:08:51;;;;;;;1341.13;999.90;;;17.90;99.90;;;;;;5033453;28;20703;-64
2022/04/28 08:11:16;;;;;;;1313.85;999.90;;;17.70;99.90;;;;;;5033156;28;20191;-65
2022/04/28 08:13:42;;;;;;;1299.82;999.90;;;17.70;99.90;;;;;;5033682;28;20688;-67
2022/04/28 08:16:08;;;;;;;1330.95;999.90;;;17.20;99.90;;;;;;5033954;28;20588;-64
2022/04/28 08:18:36;;;;;;;1344.95;999.90;;;17.00;99.90;;;;;;5018621;28;20182;-64
2022/04/28 08:21:02;;;;;;;1349.78;999.90;;;17.00;99.90;;;;;;5043883;28;20654;-64
2022/04/28 08:23:28;;;;;;;1356.20;999.90;;;18.00;99.90;;;;;;5015228;28;20214;-64
2022/04/28 08:25:53;;;;;;;1344.70;999.90;;;19.20;99.90;;;;;;5032020;28;20236;-64
2022/04/28 08:28:19;;;;;;;1340.30;999.90;;;19.80;99.90;;;;;;5015438;28;20278;-64
2022/04/28 08:30:45;;;;;;;1304.05;999.90;;;20.30;99.90;;;;;;5015735;28;20523;-64
2022/04/28 08:33:11;;;;;;;1333.80;999.90;;;19.60;99.90;;;;;;5033458;28;20535;-69
2022/04/28 08:35:36;;;;;;;1349.80;999.90;;;19.20;99.90;;;;;;5052798;28;20611;-64
2022/04/28 08:38:02;;;;;;;1322.97;999.90;;;18.90;99.90;;;;;;5033087;28;20182;-64
2022/04/28 08:40:28;;;;;;;1327.00;999.90;;;19.10;99.90;;;;;;5033092;28;20240;-64
2022/04/28 08:42:55;;;;;;;1351.03;999.90;;;19.60;99.90;;;;;;5037598;28;20209;-64
2022/04/28 08:45:27;;;;;;;1318.30;999.90;;;20.80;99.90;;;;;;5044753;28;20191;-65
2022/04/28 08:47:57;;;;;;;1330.97;999.90;;;19.70;99.90;;;;;;5031632;28;20537;-64
2022/04/28 08:50:23;;;;;;;1289.93;999.90;;;19.30;99.90;;;;;;5033079;28;20182;-64
2022/04/28 08:52:50;;;;;;;1328.40;999.90;;;19.10;99.90;;;;;;5031580;28;20186;-64
2022/04/28 08:55:16;;;;;;;1326.50;999.90;;;18.50;99.90;;;;;;5021076;28;20555;-64
2022/04/28 08:57:42;;;;;;;1347.68;999.90;;;17.60;99.90;;;;;;5032916;28;20179;-64
2022/04/28 09:00:08;;;;;;;1337.97;999.90;;;17.80;99.90;;;;;;5031670;28;20262;-64
2022/04/28 09:02:34;;;;;;;1363.18;999.90;;;17.70;99.90;;;;;;5032988;28;20289;-65
2022/04/28 09:05:07;;;;;;;1349.80;999.90;;;17.80;99.90;;;;;;5030917;28;20210;-65
2022/04/28 09:07:40;;;;;;;1363.82;999.90;;;18.60;99.90;;;;;;5032797;28;20277;-66
2022/04/28 09:10:26;;;;;;;1309.75;999.90;;;18.60;99.90;;;;;;5032619;28;20187;-64
2022/04/28 09:15:51;;;;;;;1397.57;999.90;;;15.50;99.90;;;;;;5033078;28;20675;-64
2022/04/28 09:18:18;;;;;;;1393.25;999.90;;;15.70;99.90;;;;;;5044339;28;20639;-64
2022/04/28 09:20:46;;;;;;;1459.38;999.90;;;15.70;99.90;;;;;;5015335;28;20214;-64
2022/04/28 09:23:12;;;;;;;1430.72;999.90;;;15.80;99.90;;;;;;5032905;28;20217;-64
2022/04/28 09:25:40;;;;;;;1429.47;999.90;;;15.50;99.90;;;;;;4998835;28;20582;-64
2022/04/28 09:28:08;;;;;;;1416.38;999.90;;;15.40;99.90;;;;;;5049989;28;20185;-63
2022/04/28 09:30:35;;;;;;;1508.43;999.90;;;15.30;99.90;;;;;;5032906;28;20183;-63
2022/04/28 09:33:09;;;;;;;1547.13;999.90;;;15.10;99.90;;;;;;5016211;28;20248;-63
2022/04/28 09:35:35;;;;;;;1580.55;999.90;;;15.30;99.90;;;;;;5036193;28;20209;-63
2022/04/28 09:38:00;;;;;;;1562.07;999.90;;;15.30;99.90;;;;;;5035994;28;20539;-63
2022/04/28 09:43:12;;;;;;;1564.38;999.90;;;15.70;99.90;;;;;;5036051;28;20260;-63
2022/04/28 09:45:39;;;;;;;1597.25;999.90;;;15.60;99.90;;;;;;5039390;28;20194;-63
2022/04/28 09:48:05;;;;;;;1596.45;999.90;;;15.70;99.90;;;;;;5037667;28;20196;-63
2022/04/28 09:50:31;;;;;;;1563.47;999.90;;;15.90;99.90;;;;;;5033814;28;20233;-65
2022/04/28 09:53:03;;;;;;;1592.63;999.90;;;15.60;99.90;;;;;;5036114;28;20193;-63
2022/04/28 09:55:30;;;;;;;1599.72;999.90;;;15.60;99.90;;;;;;5035825;28;20221;-63
2022/04/28 09:57:55;;;;;;;1693.25;999.90;;;15.80;99.90;;;;;;5036537;28;20175;-63
2022/04/28 10:00:21;;;;;;;1661.75;999.90;;;16.00;99.90;;;;;;5018214;28;20175;-64
2022/04/28 10:02:48;;;;;;;1616.95;999.90;;;16.10;99.90;;;;;;5034846;28;20317;-63
2022/04/28 10:05:14;;;;;;;1609.07;999.90;;;16.30;99.90;;;;;;5035852;28;20619;-64
2022/04/28 10:07:41;;;;;;;1695.20;999.90;;;16.30;99.90;;;;;;5035771;28;20202;-64
2022/04/28 10:10:07;;;;;;;1603.30;999.90;;;16.40;99.90;;;;;;5047566;28;20210;-64
2022/04/28 10:12:33;;;;;;;1619.45;999.90;;;16.50;99.90;;;;;;5032864;28;20185;-64
2022/04/28 10:15:03;;;;;;;1642.03;999.90;;;16.30;99.90;;;;;;5048489;28;20562;-63
2022/04/28 10:17:33;;;;;;;1653.55;999.90;;;16.70;99.90;;;;;;5042492;28;20186;-64
2022/04/28 10:20:10;;;;;;;1623.05;999.90;;;16.90;99.90;;;;;;5035698;28;20201;-63
2022/04/28 10:22:37;;;;;;;1626.22;999.90;;;17.20;99.90;;;;;;5036168;28;20205;-63
2022/04/28 10:33:24;;;;;;;1599.53;999.90;;;16.90;99.90;;;;;;5035227;28;20202;-64
2022/04/28 10:35:50;;;;;;;1470.63;999.90;;;16.90;99.90;;;;;;5021959;28;20191;-64
2022/04/28 10:38:26;;;;;;;1474.00;999.90;;;16.90;99.90;;;;;;5033796;28;20269;-63
2022/04/28 10:40:58;;;;;;;1525.97;999.90;;;17.10;99.90;;;;;;5033551;28;20232;-64
2022/04/28 10:43:33;;;;;;;1499.95;999.90;;;17.00;99.90;;;;;;5035074;28;20655;-64
2022/04/28 10:46:28;;;;;;;1423.13;999.90;;;17.00;99.90;;;;;;5032978;28;20221;-65
2022/04/28 10:49:03;;;;;;;1480.63;999.90;;;17.00;99.90;;;;;;5046376;28;20186;-64
2022/04/28 10:51:33;;;;;;;1517.03;999.90;;;16.90;99.90;;;;;;5034907;28;20188;-64
2022/04/28 10:54:07;;;;;;;1506.40;999.90;;;17.10;99.90;;;;;;5024033;28;20748;-63
2022/04/28 10:56:42;;;;;;;1539.82;999.90;;;17.00;99.90;;;;;;5035411;28;20177;-64
2022/04/28 10:59:32;;;;;;;1457.97;999.90;;;16.90;99.90;;;;;;5034475;28;20182;-63
2022/04/28 11:02:37;;;;;;;1455.07;999.90;;;16.80;99.90;;;;;;5034684;28;20182;-64
2022/04/28 11:05:26;;;;;;;1477.00;999.90;;;16.80;99.90;;;;;;5034813;28;20171;-64
2022/04/28 11:07:53;;;;;;;1477.97;999.90;;;16.90;99.90;;;;;;5053293;28;20209;-64
2022/04/28 11:10:18;;;;;;;1488.80;999.90;;;17.00;99.90;;;;;;5053441;28;20178;-63
2022/04/28 11:12:44;;;;;;;1502.68;999.90;;;16.90;99.90;;;;;;5030765;28;20201;-64
2022/04/28 11:15:14;;;;;;;1483.63;999.90;;;16.80;99.90;;;;;;5034109;28;20262;-63
2022/04/28 11:17:43;;;;;;;1537.05;999.90;;;16.90;99.90;;;;;;5050095;28;20689;-64
2022/04/28 11:20:12;;;;;;;1530.45;999.90;;;16.60;99.90;;;;;;5038665;28;20270;-64
2022/04/28 11:22:46;;;;;;;1524.57;999.90;;;16.70;99.90;;;;;;5046526;28;20733;-64
2022/04/28 11:25:14;;;;;;;1513.28;999.90;;;17.00;99.90;;;;;;5044306;28;20178;-63
2022/04/28 11:27:41;;;;;;;1429.60;999.90;;;17.10;99.90;;;;;;5048925;28;20182;-65
2022/04/28 11:30:10;;;;;;;1488.57;999.90;;;16.90;99.90;;;;;;5033837;28;20186;-64
2022/04/28 11:32:45;;;;;;;1528.47;999.90;;;16.60;99.90;;;;;;5017844;28;20217;-64
2022/04/28 11:35:10;;;;;;;1534.53;999.90;;;16.70;99.90;;;;;;5000123;28;20277;-64
2022/04/28 11:37:38;;;;;;;1561.10;999.90;;;17.10;99.90;;;;;;5043674;28;20284;-64
2022/04/28 11:40:06;;;;;;;1547.40;999.90;;;17.10;99.90;;;;;;5044457;28;20186;-64
2022/04/28 11:42:33;;;;;;;1480.57;999.90;;;17.40;99.90;;;;;;5034320;28;20213;-64
2022/04/28 11:45:00;;;;;;;1519.88;999.90;;;17.60;99.90;;;;;;5032542;28;20191;-63
2022/04/28 11:47:27;;;;;;;1469.22;999.90;;;17.70;99.90;;;;;;5043700;28;20539;-64
2022/04/28 11:50:03;;;;;;;1512.78;999.90;;;17.60;99.90;;;;;;5020280;28;20738;-64
2022/04/28 11:52:34;;;;;;;1486.18;999.90;;;17.50;99.90;;;;;;5032634;28;20190;-63
2022/04/28 11:55:06;;;;;;;1464.68;999.90;;;17.50;99.90;;;;;;5033560;28;20209;-64
2022/04/28 11:57:33;;;;;;;1437.45;999.90;;;17.50;99.90;;;;;;5018777;28;20170;-65
2022/04/28 11:59:59;;;;;;;1553.85;999.90;;;17.30;99.90;;;;;;5024361;28;20837;-63
2022/04/28 12:02:33;;;;;;;1503.13;999.90;;;17.20;99.90;;;;;;5033317;28;20233;-64
2022/04/28 12:05:06;;;;;;;1479.40;999.90;;;17.50;99.90;;;;;;5033462;28;20178;-64
2022/04/28 12:07:35;;;;;;;1455.90;999.90;;;17.60;99.90;;;;;;5031862;28;20281;-64
2022/04/28 12:15:39;;;;;;;1465.20;999.90;;;17.40;99.90;;;;;;5033235;28;20554;-64
2022/04/28 12:20:58;;;;;;;1469.38;999.90;;;17.60;99.90;;;;;;5033372;28;20204;-64
2022/04/28 12:23:39;;;;;;;1392.60;999.90;;;17.70;99.90;;;;;;5032756;28;20305;-65
2022/04/28 12:26:06;;;;;;;1411.72;999.90;;;17.80;99.90;;;;;;5032900;28;20190;-64
2022/04/28 12:28:34;;;;;;;1449.63;999.90;;;17.90;99.90;;;;;;5031753;28;20174;-64
2022/04/28 12:31:02;;;;;;;1484.72;999.90;;;18.00;99.90;;;;;;5032942;28;20214;-64
2022/04/28 12:33:28;;;;;;;1495.53;999.90;;;18.10;99.90;;;;;;5033352;28;20262;-64
2022/04/28 12:35:58;;;;;;;1471.60;999.90;;;18.30;99.90;;;;;;5032888;28;20226;-64
2022/04/28 12:38:30;;;;;;;1465.35;999.90;;;18.10;99.90;;;;;;5031172;28;20187;-63
2022/04/28 12:40:56;;;;;;;1430.85;999.90;;;18.10;99.90;;;;;;5017179;28;20198;-64
2022/04/28 12:43:38;;;;;;;1438.45;999.90;;;17.90;99.90;;;;;;5044898;28;20328;-63
2022/04/28 12:46:05;;;;;;;1459.38;999.90;;;17.70;99.90;;;;;;5031157;28;20210;-63